createdAt,value
2023-03-17T00:01:16.485Z,73.09
2023-03-17T00:03:44.615Z,73.43
2023-03-17T00:06:17.745Z,73.20
2023-03-17T00:08:46.267Z,73.63
2023-03-17T00:11:15.064Z,73.59
2023-03-17T00:13:42.075Z,74.33
2023-03-17T00:16:16.894Z,74.07
2023-03-17T00:18:44.668Z,74.16
2023-03-17T00:21:16.716Z,74.09
2023-03-17T00:23:50.725Z,74.25
2023-03-17T00:26:18.004Z,74.41
2023-03-17T00:28:44.808Z,74.26
2023-03-17T00:31:21.172Z,75.02
2023-03-17T00:33:49.401Z,74.88
2023-03-17T00:36:25.977Z,74.61
2023-03-17T00:38:52.739Z,75.26
2023-03-17T00:41:19.731Z,74.80
2023-03-17T00:43:46.269Z,74.64
2023-03-17T00:46:17.710Z,74.72
2023-03-17T00:48:45.776Z,75.45
2023-03-17T00:51:13.039Z,75.60
2023-03-17T00:53:39.831Z,75.94
2023-03-17T00:56:14.488Z,75.49
2023-03-17T00:58:42.041Z,75.66
2023-03-17T01:01:09.080Z,76.05
2023-03-17T01:03:35.627Z,75.85
2023-03-17T01:06:04.640Z,76.65
2023-03-17T01:08:31.681Z,76.41
2023-03-17T01:10:59.541Z,76.59
2023-03-17T01:13:26.589Z,76.56
2023-03-17T01:15:53.185Z,77.35
2023-03-17T01:18:22.703Z,76.96
2023-03-17T01:20:50.252Z,77.20
2023-03-17T01:23:17.679Z,77.25
2023-03-17T01:25:44.865Z,76.52
2023-03-17T01:28:16.834Z,76.83
2023-03-17T01:30:45.110Z,76.81
2023-03-17T01:33:13.133Z,77.35
2023-03-17T01:35:41.330Z,77.59
2023-03-17T01:38:08.601Z,76.73
2023-03-17T01:40:37.538Z,77.63
2023-03-17T01:43:08.168Z,78.31
2023-03-17T01:46:12.362Z,78.25
2023-03-17T01:48:45.769Z,77.94
2023-03-17T01:51:17.710Z,77.90
2023-03-17T01:53:48.195Z,78.17
2023-03-17T01:56:16.915Z,78.34
2023-03-17T01:58:46.687Z,78.27
2023-03-17T02:01:14.218Z,78.04
2023-03-17T02:03:42.117Z,78.05
2023-03-17T02:06:09.557Z,78.47
2023-03-17T02:08:36.391Z,78.41
2023-03-17T02:11:05.040Z,79.13
2023-03-17T02:13:32.958Z,78.99
2023-03-17T02:15:59.520Z,78.98
2023-03-17T02:18:25.985Z,78.56
2023-03-17T02:21:27.237Z,77.97
2023-03-17T02:23:53.713Z,77.64
2023-03-17T02:26:22.188Z,78.25
2023-03-17T02:28:49.195Z,78.96
2023-03-17T02:31:16.469Z,78.43
2023-03-17T02:33:43.400Z,78.76
2023-03-17T02:36:10.952Z,78.53
2023-03-17T02:38:37.914Z,78.87
2023-03-17T02:41:06.358Z,78.73
2023-03-17T02:43:33.198Z,79.23
2023-03-17T02:45:59.698Z,79.77
2023-03-17T02:48:26.350Z,79.32
2023-03-17T02:50:52.897Z,79.48
2023-03-17T02:53:19.826Z,78.92
2023-03-17T02:55:46.335Z,78.96
2023-03-17T02:58:12.880Z,78.86
2023-03-17T03:00:40.458Z,79.47
2023-03-17T03:03:06.955Z,79.10
2023-03-17T03:05:33.475Z,79.28
2023-03-17T03:07:59.909Z,78.54
2023-03-17T03:10:27.074Z,79.29
2023-03-17T03:12:53.629Z,79.20
2023-03-17T03:15:20.922Z,79.56
2023-03-17T03:17:47.381Z,79.90
2023-03-17T03:20:14.623Z,79.11
2023-03-17T03:22:41.159Z,78.92
2023-03-17T03:25:08.733Z,78.30
2023-03-17T03:27:35.219Z,77.95
2023-03-17T03:30:02.045Z,78.37
2023-03-17T03:32:28.568Z,77.60
2023-03-17T03:34:55.094Z,77.27
2023-03-17T03:37:21.762Z,77.49
2023-03-17T03:39:48.300Z,77.40
2023-03-17T03:42:14.764Z,77.08
2023-03-17T03:44:41.253Z,76.25
2023-03-17T03:47:08.292Z,75.93
2023-03-17T03:49:34.857Z,75.37
2023-03-17T03:52:01.434Z,74.90
2023-03-17T03:54:27.904Z,74.83
2023-03-17T03:56:54.325Z,74.71
2023-03-17T03:59:20.959Z,74.69
2023-03-17T04:01:47.456Z,74.29
2023-03-17T04:04:13.949Z,73.77
2023-03-17T04:06:40.459Z,73.73
2023-03-17T04:09:07.517Z,73.72
2023-03-17T04:11:34.029Z,73.43
2023-03-17T04:14:00.988Z,73.44
2023-03-17T04:16:28.209Z,73.48
2023-03-17T04:18:54.854Z,73.23
2023-03-17T04:21:21.718Z,72.98
2023-03-17T04:23:48.190Z,72.72
2023-03-17T04:26:14.778Z,73.00
2023-03-17T04:28:41.242Z,72.32
2023-03-17T04:31:10.752Z,72.53
2023-03-17T04:33:37.218Z,71.96
2023-03-17T04:36:04.577Z,71.74
2023-03-17T04:38:31.027Z,72.04
2023-03-17T04:40:57.502Z,71.58
2023-03-17T04:43:24.502Z,71.77
2023-03-17T04:48:17.669Z,71.54
2023-03-17T04:50:45.494Z,71.77
2023-03-17T04:53:11.955Z,71.44
2023-03-17T04:55:38.461Z,71.54
2023-03-17T04:58:04.912Z,72.13
2023-03-17T05:00:32.334Z,71.77
2023-03-17T05:02:58.948Z,71.76
2023-03-17T05:05:25.448Z,71.30
2023-03-17T05:07:51.967Z,71.66
2023-03-17T05:10:18.483Z,71.48
2023-03-17T05:12:45.348Z,71.64
2023-03-17T05:15:11.943Z,71.59
2023-03-17T05:17:38.420Z,71.45
2023-03-17T05:20:05.707Z,71.40
2023-03-17T05:22:32.212Z,71.55
2023-03-17T05:24:58.861Z,71.30
2023-03-17T05:27:26.325Z,71.29
2023-03-17T05:29:52.768Z,71.56
2023-03-17T05:32:19.817Z,71.84
2023-03-17T05:34:46.646Z,71.99
2023-03-17T05:37:14.136Z,71.49
2023-03-17T05:39:40.627Z,71.88
2023-03-17T05:42:08.496Z,71.86
2023-03-17T05:44:35.527Z,71.96
2023-03-17T05:47:02.048Z,72.16
2023-03-17T05:49:28.723Z,72.27
2023-03-17T05:51:55.592Z,72.53
2023-03-17T05:54:22.912Z,72.52
2023-03-17T05:56:49.412Z,72.71
2023-03-17T05:59:16.813Z,72.52
2023-03-17T06:01:43.303Z,72.58
2023-03-17T06:04:09.993Z,72.67
2023-03-17T06:06:36.541Z,72.50
2023-03-17T06:09:03.055Z,71.93
2023-03-17T06:11:29.556Z,72.26
2023-03-17T06:13:56.276Z,71.90
2023-03-17T06:16:22.916Z,71.91
2023-03-17T06:18:49.716Z,71.63
2023-03-17T06:21:16.309Z,71.84
2023-03-17T06:23:43.492Z,71.83
2023-03-17T06:26:09.960Z,71.58
2023-03-17T06:28:36.437Z,71.45
2023-03-17T06:31:04.706Z,71.38
2023-03-17T06:33:34.545Z,71.53
2023-03-17T06:36:01.752Z,71.14
2023-03-17T06:38:28.385Z,71.39
2023-03-17T06:40:54.864Z,71.77
2023-03-17T06:43:22.216Z,71.78
2023-03-17T06:45:48.700Z,71.76
2023-03-17T06:48:15.244Z,71.31
2023-03-17T06:50:41.726Z,71.39
2023-03-17T06:53:08.260Z,71.12
2023-03-17T06:55:34.797Z,71.16
2023-03-17T06:58:02.976Z,71.13
2023-03-17T07:00:30.336Z,71.21
2023-03-17T07:02:57.769Z,71.04
2023-03-17T07:05:24.261Z,70.62
2023-03-17T07:07:50.783Z,70.93
2023-03-17T07:10:18.070Z,70.68
2023-03-17T07:12:45.107Z,70.39
2023-03-17T07:15:12.523Z,70.45
2023-03-17T07:17:39.095Z,71.02
2023-03-17T07:20:06.504Z,70.53
2023-03-17T07:22:33.191Z,70.45
2023-03-17T07:24:59.896Z,70.49
2023-03-17T07:27:26.610Z,70.40
2023-03-17T07:29:53.184Z,69.94
2023-03-17T07:32:20.057Z,69.80
2023-03-17T07:34:46.615Z,69.84
2023-03-17T07:37:13.237Z,69.58
2023-03-17T07:39:40.026Z,69.81
2023-03-17T07:42:06.936Z,69.31
2023-03-17T07:44:33.740Z,68.88
2023-03-17T07:47:00.398Z,69.13
2023-03-17T07:49:40.454Z,69.24
2023-03-17T07:52:08.696Z,68.51
2023-03-17T07:54:36.281Z,68.82
2023-03-17T07:57:03.499Z,69.04
2023-03-17T07:59:30.263Z,68.48
2023-03-17T08:01:59.676Z,68.83
2023-03-17T08:04:27.529Z,67.97
2023-03-17T08:06:54.543Z,68.43
2023-03-17T08:09:24.539Z,68.64
2023-03-17T08:11:51.098Z,67.84
2023-03-17T08:14:17.604Z,66.80
2023-03-17T08:16:44.295Z,67.72
2023-03-17T08:19:11.139Z,67.58
2023-03-17T08:21:37.711Z,66.91
2023-03-17T08:24:05.306Z,66.34
2023-03-17T08:26:32.236Z,66.40
2023-03-17T08:28:58.990Z,65.53
2023-03-17T08:31:25.817Z,65.29
2023-03-17T08:33:56.590Z,65.27
2023-03-17T08:36:23.904Z,65.28
2023-03-17T08:38:50.651Z,65.05
2023-03-17T08:41:20.308Z,63.95
2023-03-17T08:43:47.871Z,64.02
2023-03-17T08:46:27.180Z,63.57
2023-03-17T08:48:56.265Z,63.33
2023-03-17T08:51:26.603Z,62.68
2023-03-17T08:53:54.909Z,63.30
2023-03-17T08:56:22.052Z,63.11
2023-03-17T08:58:49.236Z,61.87
2023-03-17T09:01:17.006Z,61.57
2023-03-17T09:03:43.961Z,61.26
2023-03-17T09:06:12.359Z,61.69
2023-03-17T09:08:44.429Z,61.00
2023-03-17T09:11:13.758Z,61.71
2023-03-17T09:13:41.390Z,60.39
2023-03-17T09:16:08.886Z,62.10
2023-03-17T09:18:36.172Z,60.70
2023-03-17T09:21:04.059Z,61.27
2023-03-17T09:23:31.425Z,59.81
2023-03-17T09:25:58.067Z,59.02
2023-03-17T09:28:24.822Z,59.29
2023-03-17T09:30:51.671Z,60.30
2023-03-17T09:33:18.664Z,59.41
2023-03-17T09:35:45.372Z,59.53
2023-03-17T09:38:12.775Z,59.72
2023-03-17T09:40:48.066Z,59.18
2023-03-17T09:43:29.271Z,60.74
2023-03-17T09:45:56.163Z,60.44
2023-03-17T09:48:28.395Z,60.76
2023-03-17T09:51:04.826Z,60.16
2023-03-17T09:53:46.197Z,60.64
2023-03-17T09:56:15.592Z,59.46
2023-03-17T09:58:52.794Z,59.93
2023-03-17T10:01:19.683Z,58.89
2023-03-17T10:03:47.397Z,58.97
2023-03-17T10:06:44.876Z,57.86
2023-03-17T10:09:37.368Z,59.85
2023-03-17T10:12:11.044Z,59.28
2023-03-17T10:15:01.888Z,59.62
2023-03-17T10:17:39.352Z,59.79
2023-03-17T10:20:16.577Z,60.02
2023-03-17T10:22:48.188Z,60.86
2023-03-17T10:25:24.344Z,61.49
2023-03-17T10:28:03.439Z,60.07
2023-03-17T10:30:33.721Z,61.20
2023-03-17T10:33:03.342Z,60.06
2023-03-17T10:35:35.966Z,59.56
2023-03-17T10:38:22.895Z,59.99
2023-03-17T10:41:02.370Z,59.12
2023-03-17T10:43:35.591Z,58.38
2023-03-17T10:46:05.605Z,58.40
2023-03-17T10:48:37.318Z,58.66
2023-03-17T10:51:11.297Z,58.43
2023-03-17T10:53:44.799Z,58.46
2023-03-17T10:56:23.478Z,58.15
2023-03-17T10:58:52.542Z,58.39
2023-03-17T11:01:29.556Z,56.78
2023-03-17T11:03:56.361Z,56.25
2023-03-17T11:06:39.159Z,58.67
2023-03-17T11:09:09.590Z,56.08
2023-03-17T11:11:47.312Z,57.23
2023-03-17T11:14:19.084Z,57.15
2023-03-17T11:17:00.978Z,57.86
2023-03-17T11:19:42.833Z,58.26
2023-03-17T11:22:38.553Z,57.82
2023-03-17T11:25:23.530Z,57.99
2023-03-17T11:28:02.824Z,57.73
2023-03-17T11:30:58.638Z,57.78
2023-03-17T11:33:47.065Z,57.80
2023-03-17T11:36:37.699Z,58.30
2023-03-17T11:39:17.443Z,58.78
2023-03-17T11:41:55.763Z,56.55
2023-03-17T11:44:40.378Z,57.54
2023-03-17T11:47:38.596Z,56.22
2023-03-17T11:50:35.257Z,56.96
2023-03-17T11:53:17.103Z,56.03
2023-03-17T11:55:54.436Z,57.06
2023-03-17T11:58:31.972Z,55.94
2023-03-17T12:01:00.807Z,55.72
2023-03-17T12:03:34.224Z,56.67
2023-03-17T12:06:07.872Z,55.67
2023-03-17T12:08:37.796Z,56.96
2023-03-17T12:11:09.227Z,55.90
2023-03-17T12:13:46.159Z,55.72
2023-03-17T12:16:21.350Z,56.23
2023-03-17T12:19:06.376Z,56.85
2023-03-17T12:21:36.881Z,56.42
2023-03-17T12:24:15.178Z,57.00
2023-03-17T12:26:59.463Z,56.07
2023-03-17T12:29:57.217Z,55.42
2023-03-17T12:32:42.703Z,55.23
2023-03-17T12:35:34.879Z,56.53
2023-03-17T12:38:09.084Z,56.28
2023-03-17T12:40:40.692Z,55.82
2023-03-17T12:43:37.885Z,56.15
2023-03-17T12:46:33.983Z,55.61
2023-03-17T12:49:15.273Z,55.08
2023-03-17T12:52:09.126Z,55.22
2023-03-17T12:54:39.440Z,54.96
2023-03-17T12:57:42.707Z,55.62
2023-03-17T13:00:27.086Z,55.46
2023-03-17T13:03:11.586Z,55.12
2023-03-17T13:05:38.280Z,54.14
2023-03-17T13:08:10.800Z,54.93
2023-03-17T13:10:51.061Z,54.88
2023-03-17T13:13:44.549Z,54.74
2023-03-17T13:16:33.548Z,54.84
2023-03-17T13:19:31.198Z,54.71
2023-03-17T13:22:01.024Z,54.93
2023-03-17T13:24:47.951Z,54.79
2023-03-17T13:27:34.701Z,55.15
2023-03-17T13:30:24.234Z,55.27
2023-03-17T13:33:09.941Z,55.96
2023-03-17T13:35:47.720Z,54.94
2023-03-17T13:38:32.640Z,55.82
2023-03-17T13:41:08.128Z,54.72
2023-03-17T13:44:03.121Z,55.96
2023-03-17T13:46:39.944Z,55.45
2023-03-17T13:49:15.565Z,56.05
2023-03-17T13:51:52.741Z,56.34
2023-03-17T13:54:28.743Z,56.15
2023-03-17T13:57:14.890Z,56.58
2023-03-17T13:59:50.429Z,55.62
2023-03-17T14:02:23.779Z,56.39
2023-03-17T14:04:57.545Z,55.54
2023-03-17T14:07:28.215Z,55.60
2023-03-17T14:10:04.104Z,55.61
2023-03-17T14:12:46.851Z,56.66
2023-03-17T14:15:40.632Z,56.97
2023-03-17T14:18:16.468Z,57.03
2023-03-17T14:20:58.176Z,57.29
2023-03-17T14:23:25.893Z,56.82
2023-03-17T14:25:55.951Z,56.33
2023-03-17T14:28:34.281Z,56.98
2023-03-17T14:31:07.247Z,56.43
2023-03-17T14:33:39.704Z,56.17
2023-03-17T14:36:09.160Z,55.19
2023-03-17T14:38:37.619Z,55.89
2023-03-17T14:41:14.263Z,55.66
2023-03-17T14:43:42.621Z,54.44
2023-03-17T14:46:27.782Z,54.48
2023-03-17T14:49:14.379Z,53.36
2023-03-17T14:51:42.030Z,52.53
2023-03-17T14:54:19.103Z,52.69
2023-03-17T14:57:14.679Z,52.93
2023-03-17T14:59:43.219Z,51.03
2023-03-17T15:02:23.142Z,51.72
2023-03-17T15:04:58.763Z,51.03
2023-03-17T15:07:40.370Z,50.98
2023-03-17T15:10:24.631Z,50.45
2023-03-17T15:13:00.967Z,50.72
2023-03-17T15:15:32.592Z,50.53
2023-03-17T15:18:03.302Z,50.47
2023-03-17T15:20:35.235Z,50.39
2023-03-17T15:23:14.589Z,51.02
2023-03-17T15:25:47.382Z,49.37
2023-03-17T15:28:19.134Z,50.60
2023-03-17T15:30:48.728Z,49.55
2023-03-17T15:33:34.167Z,49.50
2023-03-17T15:36:01.630Z,48.82
2023-03-17T15:38:29.085Z,49.02
2023-03-17T15:40:56.125Z,49.41
2023-03-17T15:43:22.807Z,50.78
2023-03-17T15:46:01.488Z,51.63
2023-03-17T15:48:31.416Z,51.21
2023-03-17T15:51:00.201Z,51.04
2023-03-17T15:53:26.936Z,51.83
2023-03-17T15:55:53.490Z,52.90
2023-03-17T15:58:20.389Z,53.33
2023-03-17T16:00:54.596Z,53.08
2023-03-17T16:03:26.975Z,54.80
2023-03-17T16:05:53.604Z,54.29
2023-03-17T16:08:20.179Z,54.94
2023-03-17T16:10:46.962Z,55.18
2023-03-17T16:13:14.031Z,55.97
2023-03-17T16:15:42.812Z,56.04
2023-03-17T16:18:16.792Z,55.37
2023-03-17T16:20:46.336Z,56.59
2023-03-17T16:23:22.014Z,57.98
2023-03-17T16:25:49.336Z,55.98
2023-03-17T16:28:34.065Z,56.57
2023-03-17T16:31:01.997Z,56.69
2023-03-17T16:33:32.272Z,57.19
2023-03-17T16:36:00.428Z,57.07
2023-03-17T16:38:29.520Z,58.64
2023-03-17T16:41:01.584Z,58.31
2023-03-17T16:43:35.772Z,59.29
2023-03-17T16:46:03.376Z,61.13
2023-03-17T16:48:31.160Z,60.18
2023-03-17T16:50:58.180Z,61.18
2023-03-17T16:53:25.653Z,60.02
2023-03-17T16:55:54.110Z,61.17
2023-03-17T16:58:26.307Z,61.95
2023-03-17T17:00:57.455Z,61.38
2023-03-17T17:03:24.329Z,62.27
2023-03-17T17:05:51.140Z,65.50
2023-03-17T17:08:17.724Z,62.28
2023-03-17T17:10:44.210Z,66.41
2023-03-17T17:13:12.323Z,64.82
2023-03-17T17:15:40.093Z,66.06
2023-03-17T17:18:18.770Z,63.81
2023-03-17T17:20:46.043Z,68.48
2023-03-17T17:23:18.672Z,65.62
2023-03-17T17:25:45.543Z,65.75
2023-03-17T17:28:15.758Z,65.18
2023-03-17T17:30:45.191Z,65.90
2023-03-17T17:33:12.569Z,66.54
2023-03-17T17:35:39.395Z,68.02
2023-03-17T17:38:15.474Z,68.19
2023-03-17T17:40:42.140Z,67.00
2023-03-17T17:43:09.838Z,66.85
2023-03-17T17:45:36.831Z,66.13
2023-03-17T17:48:04.008Z,67.33
2023-03-17T17:50:31.361Z,66.75
2023-03-17T17:53:04.790Z,66.77
2023-03-17T17:55:33.682Z,67.27
2023-03-17T17:58:01.156Z,67.79
2023-03-17T18:00:28.282Z,69.06
2023-03-17T18:02:54.849Z,68.21
2023-03-17T18:05:21.918Z,68.81
2023-03-17T18:07:48.646Z,68.53
2023-03-17T18:10:22.500Z,69.19
2023-03-17T18:12:49.076Z,71.53
2023-03-17T18:15:16.076Z,71.70
2023-03-17T18:17:43.531Z,71.85
2023-03-17T18:20:13.669Z,73.38
2023-03-17T18:22:40.887Z,74.06
2023-03-17T18:25:10.166Z,76.04
2023-03-17T18:27:38.332Z,72.66
2023-03-17T18:30:11.667Z,73.71
2023-03-17T18:32:38.960Z,74.71
2023-03-17T18:35:10.479Z,74.78
2023-03-17T18:37:37.253Z,75.28
2023-03-17T18:40:14.208Z,74.33
2023-03-17T18:42:42.891Z,74.64
2023-03-17T18:45:11.622Z,75.59
2023-03-17T18:47:39.138Z,77.35
2023-03-17T18:50:08.070Z,75.78
2023-03-17T18:52:36.536Z,75.36
2023-03-17T18:55:04.270Z,78.79
2023-03-17T18:57:31.863Z,76.89
2023-03-17T18:59:59.076Z,77.12
2023-03-17T19:02:26.177Z,78.34
2023-03-17T19:04:52.912Z,76.98
2023-03-17T19:07:19.384Z,78.44
2023-03-17T19:09:45.933Z,78.03
2023-03-17T19:12:12.460Z,78.69
2023-03-17T19:14:40.394Z,77.81
2023-03-17T19:17:07.731Z,77.56
2023-03-17T19:19:35.722Z,78.63
2023-03-17T19:22:03.968Z,77.97
2023-03-17T19:24:32.112Z,79.01
2023-03-17T19:26:58.707Z,77.68
2023-03-17T19:29:26.859Z,78.24
2023-03-17T19:31:53.854Z,78.12
2023-03-17T19:34:20.559Z,77.52
2023-03-17T19:36:47.118Z,78.15
2023-03-17T19:39:14.662Z,77.99
2023-03-17T19:41:41.192Z,78.18
2023-03-17T19:44:07.761Z,77.63
2023-03-17T19:46:37.399Z,77.80
2023-03-17T19:49:04.921Z,78.75
2023-03-17T19:51:32.852Z,77.81
2023-03-17T19:54:00.131Z,76.79
2023-03-17T19:56:27.935Z,76.37
2023-03-17T19:58:55.409Z,75.48
2023-03-17T20:01:22.970Z,74.97
2023-03-17T20:03:49.773Z,74.74
2023-03-17T20:06:16.837Z,73.84
2023-03-17T20:08:44.132Z,73.47
2023-03-17T20:11:12.492Z,73.02
2023-03-17T20:13:39.291Z,72.88
2023-03-17T20:16:07.775Z,72.18
2023-03-17T20:18:34.660Z,71.72
2023-03-17T20:21:05.331Z,72.29
2023-03-17T20:23:32.580Z,71.32
2023-03-17T20:25:59.144Z,69.82
2023-03-17T20:28:25.668Z,68.75
2023-03-17T20:30:52.520Z,69.21
2023-03-17T20:33:19.218Z,69.50
2023-03-17T20:35:47.477Z,69.04
2023-03-17T20:38:15.009Z,68.17
2023-03-17T20:40:41.999Z,68.46
2023-03-17T20:43:09.498Z,68.08
2023-03-17T20:45:37.021Z,68.42
2023-03-17T20:48:06.003Z,68.53
2023-03-17T20:50:34.366Z,68.59
2023-03-17T20:53:01.647Z,69.14
2023-03-17T20:55:28.917Z,69.59
2023-03-17T20:57:58.672Z,68.91
2023-03-17T21:00:26.188Z,69.47
2023-03-17T21:02:53.174Z,69.71
2023-03-17T21:05:25.570Z,69.81
2023-03-17T21:07:52.713Z,69.97
2023-03-17T21:10:19.870Z,69.77
2023-03-17T21:12:46.527Z,70.39
2023-03-17T21:15:13.892Z,69.80
2023-03-17T21:17:42.348Z,70.28
2023-03-17T21:20:12.312Z,71.20
2023-03-17T21:22:39.903Z,70.80
2023-03-17T21:25:08.619Z,70.81
2023-03-17T21:27:37.707Z,71.07
2023-03-17T21:30:07.014Z,71.05
2023-03-17T21:32:33.671Z,71.51
2023-03-17T21:35:00.325Z,71.48
2023-03-17T21:37:27.329Z,72.51
2023-03-17T21:39:53.835Z,71.49
2023-03-17T21:42:20.423Z,71.76
2023-03-17T21:44:48.315Z,71.68
2023-03-17T21:47:15.484Z,72.38
2023-03-17T21:49:41.979Z,71.74
2023-03-17T21:52:09.521Z,72.59
2023-03-17T21:54:37.084Z,72.68
2023-03-17T21:57:04.491Z,72.26
2023-03-17T21:59:34.235Z,72.37
2023-03-17T22:02:00.816Z,72.36
2023-03-17T22:04:28.526Z,72.64
2023-03-17T22:06:55.954Z,73.00
2023-03-17T22:09:22.515Z,73.25
2023-03-17T22:11:49.782Z,73.73
2023-03-17T22:14:19.967Z,73.26
2023-03-17T22:16:47.818Z,73.86
2023-03-17T22:19:14.764Z,74.33
2023-03-17T22:21:42.136Z,74.22
2023-03-17T22:24:09.200Z,74.18
2023-03-17T22:26:35.776Z,74.34
2023-03-17T22:29:02.326Z,74.66
2023-03-17T22:31:29.724Z,75.30
2023-03-17T22:33:59.099Z,75.34
2023-03-17T22:36:26.246Z,75.21
2023-03-17T22:38:53.414Z,75.46
2023-03-17T22:41:22.534Z,75.55
2023-03-17T22:43:49.316Z,75.97
2023-03-17T22:46:16.756Z,76.23
2023-03-17T22:48:44.896Z,76.28
2023-03-17T22:51:14.105Z,76.44
2023-03-17T22:53:40.960Z,75.93
2023-03-17T22:56:08.844Z,76.77
2023-03-17T22:58:36.033Z,76.97
2023-03-17T23:01:03.623Z,76.63
2023-03-17T23:03:30.566Z,76.94
2023-03-17T23:06:00.158Z,76.32
2023-03-17T23:08:29.351Z,77.40
2023-03-17T23:10:56.769Z,76.99
2023-03-17T23:13:24.199Z,77.64
2023-03-17T23:15:50.800Z,77.40
2023-03-17T23:18:17.449Z,77.78
2023-03-17T23:20:43.938Z,78.05
2023-03-17T23:23:12.192Z,78.47
2023-03-17T23:25:39.006Z,78.85
2023-03-17T23:28:06.943Z,78.79
2023-03-17T23:30:35.429Z,79.42
2023-03-17T23:33:02.506Z,79.17
2023-03-17T23:35:29.103Z,79.86
2023-03-17T23:37:55.644Z,80.24
2023-03-17T23:40:23.966Z,80.53
2023-03-17T23:42:50.680Z,80.36
2023-03-17T23:45:18.348Z,80.39
2023-03-17T23:47:46.706Z,80.65
2023-03-17T23:50:14.501Z,80.93
2023-03-17T23:52:42.472Z,81.72
2023-03-17T23:55:11.718Z,82.38
2023-03-17T23:57:38.976Z,82.81
